Annada, Missouri
Current Conditions -  °F | °C
As of 12:55 AM on Monday 22 Dec 2014 (Local Time) from KPPQ Reporting Station
Overcast Overcast  
Wind Chill: 34°   Ceiling: 4600
Heat Index: 40°   Visibility: 10mi
Dew Point: 34°   Wind: 9mph
Humidity: 79%   Direction: 140°SE
Pressure: 29.9"   Gusts: NA
Location:  39.26°N, 90.83°W
Report Text: KPPQ 220655Z AUTO 14008KT 10SM OVC046 05/01 A2990 RMK AO2 T00450011
Loading
Personal Weather Stations






























Interactive Weather Map New forecast layout! Learn more

10-Day Weather Forecast

Advertisements
Track Severe Weather on mobile